sensor_id;sensor_type;location;lat;lon;timestamp;P1;durP1;ratioP1;P2;durP2;ratioP2
422;SDS011;198;48.752;9.180;2024-01-06T00:00:33;13.50;;;2.73;;
422;SDS011;198;48.752;9.180;2024-01-06T00:02:59;3.77;;;1.93;;
422;SDS011;198;48.752;9.180;2024-01-06T00:05:25;4.23;;;1.80;;
422;SDS011;198;48.752;9.180;2024-01-06T00:07:50;2.30;;;1.40;;
422;SDS011;198;48.752;9.180;2024-01-06T00:10:16;6.03;;;1.83;;
422;SDS011;198;48.752;9.180;2024-01-06T00:12:42;10.37;;;1.43;;
422;SDS011;198;48.752;9.180;2024-01-06T00:15:08;2.97;;;1.60;;
422;SDS011;198;48.752;9.180;2024-01-06T00:17:33;4.30;;;1.40;;
422;SDS011;198;48.752;9.180;2024-01-06T00:19:59;5.93;;;2.07;;
422;SDS011;198;48.752;9.180;2024-01-06T00:22:25;9.87;;;1.80;;
422;SDS011;198;48.752;9.180;2024-01-06T00:24:51;5.77;;;1.07;;
422;SDS011;198;48.752;9.180;2024-01-06T00:27:16;7.97;;;1.23;;
422;SDS011;198;48.752;9.180;2024-01-06T00:29:42;2.47;;;1.20;;
422;SDS011;198;48.752;9.180;2024-01-06T00:32:07;5.40;;;1.60;;
422;SDS011;198;48.752;9.180;2024-01-06T00:34:33;8.80;;;1.20;;
422;SDS011;198;48.752;9.180;2024-01-06T00:36:58;6.00;;;1.07;;
422;SDS011;198;48.752;9.180;2024-01-06T00:39:24;5.93;;;1.10;;
422;SDS011;198;48.752;9.180;2024-01-06T00:41:49;9.97;;;1.70;;
422;SDS011;198;48.752;9.180;2024-01-06T00:44:15;5.00;;;1.33;;
422;SDS011;198;48.752;9.180;2024-01-06T00:46:40;6.43;;;1.30;;
422;SDS011;198;48.752;9.180;2024-01-06T00:49:06;6.63;;;1.87;;
422;SDS011;198;48.752;9.180;2024-01-06T00:51:31;5.53;;;1.37;;
422;SDS011;198;48.752;9.180;2024-01-06T00:53:57;7.93;;;1.90;;
422;SDS011;198;48.752;9.180;2024-01-06T00:56:22;4.60;;;1.10;;
422;SDS011;198;48.752;9.180;2024-01-06T00:58:48;3.23;;;1.10;;
422;SDS011;198;48.752;9.180;2024-01-06T01:01:14;4.03;;;1.20;;
422;SDS011;198;48.752;9.180;2024-01-06T01:03:39;5.57;;;1.93;;
422;SDS011;198;48.752;9.180;2024-01-06T01:06:05;1.30;;;0.97;;
422;SDS011;198;48.752;9.180;2024-01-06T01:08:30;6.67;;;1.63;;
422;SDS011;198;48.752;9.180;2024-01-06T01:10:56;5.30;;;1.60;;
422;SDS011;198;48.752;9.180;2024-01-06T01:13:22;8.90;;;2.30;;
422;SDS011;198;48.752;9.180;2024-01-06T01:15:48;3.60;;;1.50;;
422;SDS011;198;48.752;9.180;2024-01-06T01:18:14;10.47;;;4.50;;
422;SDS011;198;48.752;9.180;2024-01-06T01:20:39;4.83;;;1.40;;
422;SDS011;198;48.752;9.180;2024-01-06T01:23:06;3.40;;;1.10;;
422;SDS011;198;48.752;9.180;2024-01-06T01:25:32;4.60;;;1.53;;
422;SDS011;198;48.752;9.180;2024-01-06T01:27:58;2.93;;;1.50;;
422;SDS011;198;48.752;9.180;2024-01-06T01:30:23;5.00;;;1.90;;
422;SDS011;198;48.752;9.180;2024-01-06T01:32:49;19.27;;;2.30;;
422;SDS011;198;48.752;9.180;2024-01-06T01:35:15;4.63;;;1.20;;
422;SDS011;198;48.752;9.180;2024-01-06T01:37:40;2.73;;;1.27;;
422;SDS011;198;48.752;9.180;2024-01-06T01:40:06;4.87;;;1.57;;
422;SDS011;198;48.752;9.180;2024-01-06T01:42:32;4.83;;;1.27;;
422;SDS011;198;48.752;9.180;2024-01-06T01:44:58;5.50;;;1.30;;
422;SDS011;198;48.752;9.180;2024-01-06T01:47:23;2.30;;;1.20;;
422;SDS011;198;48.752;9.180;2024-01-06T01:49:49;3.57;;;1.00;;
422;SDS011;198;48.752;9.180;2024-01-06T01:52:15;4.73;;;1.20;;
422;SDS011;198;48.752;9.180;2024-01-06T01:54:41;9.43;;;1.70;;
422;SDS011;198;48.752;9.180;2024-01-06T01:57:08;1.70;;;1.27;;
422;SDS011;198;48.752;9.180;2024-01-06T01:59:35;3.80;;;0.87;;
422;SDS011;198;48.752;9.180;2024-01-06T02:02:01;1.10;;;1.00;;
422;SDS011;198;48.752;9.180;2024-01-06T02:04:27;4.87;;;1.73;;
422;SDS011;198;48.752;9.180;2024-01-06T02:06:53;4.20;;;1.33;;
422;SDS011;198;48.752;9.180;2024-01-06T02:09:18;6.97;;;1.50;;
422;SDS011;198;48.752;9.180;2024-01-06T02:11:44;2.30;;;1.00;;
422;SDS011;198;48.752;9.180;2024-01-06T02:14:10;13.33;;;1.63;;
422;SDS011;198;48.752;9.180;2024-01-06T02:16:35;5.60;;;1.30;;
422;SDS011;198;48.752;9.180;2024-01-06T02:19:01;2.73;;;1.57;;
422;SDS011;198;48.752;9.180;2024-01-06T02:21:27;3.50;;;1.20;;
422;SDS011;198;48.752;9.180;2024-01-06T02:23:53;14.37;;;2.07;;
422;SDS011;198;48.752;9.180;2024-01-06T02:26:19;4.37;;;1.40;;
422;SDS011;198;48.752;9.180;2024-01-06T02:28:44;6.63;;;1.27;;
422;SDS011;198;48.752;9.180;2024-01-06T02:31:12;2.37;;;1.20;;
422;SDS011;198;48.752;9.180;2024-01-06T02:33:38;7.37;;;1.77;;
422;SDS011;198;48.752;9.180;2024-01-06T02:36:04;2.10;;;1.30;;
422;SDS011;198;48.752;9.180;2024-01-06T02:38:29;4.67;;;1.50;;
422;SDS011;198;48.752;9.180;2024-01-06T02:40:55;7.03;;;1.27;;
422;SDS011;198;48.752;9.180;2024-01-06T02:43:20;6.83;;;1.63;;
422;SDS011;198;48.752;9.180;2024-01-06T02:45:48;2.00;;;1.23;;
422;SDS011;198;48.752;9.180;2024-01-06T02:48:13;9.30;;;1.33;;
422;SDS011;198;48.752;9.180;2024-01-06T02:50:39;3.30;;;1.57;;
422;SDS011;198;48.752;9.180;2024-01-06T02:53:04;6.70;;;1.60;;
422;SDS011;198;48.752;9.180;2024-01-06T02:55:29;8.33;;;1.80;;
422;SDS011;198;48.752;9.180;2024-01-06T02:57:55;5.27;;;1.50;;
422;SDS011;198;48.752;9.180;2024-01-06T03:00:20;7.93;;;1.30;;
422;SDS011;198;48.752;9.180;2024-01-06T03:02:46;9.23;;;1.90;;
422;SDS011;198;48.752;9.180;2024-01-06T03:05:11;3.63;;;1.40;;
422;SDS011;198;48.752;9.180;2024-01-06T03:07:37;9.13;;;2.10;;
422;SDS011;198;48.752;9.180;2024-01-06T03:10:03;9.03;;;1.70;;
422;SDS011;198;48.752;9.180;2024-01-06T03:12:28;4.40;;;1.50;;
422;SDS011;198;48.752;9.180;2024-01-06T03:14:54;4.20;;;1.73;;
422;SDS011;198;48.752;9.180;2024-01-06T03:17:19;4.57;;;1.60;;
422;SDS011;198;48.752;9.180;2024-01-06T03:19:45;4.30;;;1.60;;
422;SDS011;198;48.752;9.180;2024-01-06T03:22:10;3.23;;;1.50;;
422;SDS011;198;48.752;9.180;2024-01-06T03:24:36;6.80;;;2.20;;
422;SDS011;198;48.752;9.180;2024-01-06T03:27:01;7.43;;;1.90;;
422;SDS011;198;48.752;9.180;2024-01-06T03:29:27;9.20;;;2.00;;
422;SDS011;198;48.752;9.180;2024-01-06T03:31:53;2.67;;;1.37;;
422;SDS011;198;48.752;9.180;2024-01-06T03:34:18;3.30;;;1.63;;
422;SDS011;198;48.752;9.180;2024-01-06T03:36:43;5.67;;;1.57;;
422;SDS011;198;48.752;9.180;2024-01-06T03:39:09;6.10;;;1.63;;
422;SDS011;198;48.752;9.180;2024-01-06T03:41:35;2.97;;;1.50;;
422;SDS011;198;48.752;9.180;2024-01-06T03:44:01;1.47;;;1.10;;
422;SDS011;198;48.752;9.180;2024-01-06T03:46:26;5.33;;;1.60;;
422;SDS011;198;48.752;9.180;2024-01-06T03:48:52;3.17;;;1.67;;
422;SDS011;198;48.752;9.180;2024-01-06T03:51:17;6.07;;;2.30;;
422;SDS011;198;48.752;9.180;2024-01-06T03:53:43;2.23;;;1.37;;
422;SDS011;198;48.752;9.180;2024-01-06T03:56:09;12.63;;;1.80;;
422;SDS011;198;48.752;9.180;2024-01-06T03:58:34;11.87;;;2.27;;
422;SDS011;198;48.752;9.180;2024-01-06T04:01:00;9.10;;;1.80;;
422;SDS011;198;48.752;9.180;2024-01-06T04:03:25;7.60;;;2.20;;
422;SDS011;198;48.752;9.180;2024-01-06T04:05:51;6.40;;;1.60;;
422;SDS011;198;48.752;9.180;2024-01-06T04:08:17;6.43;;;1.70;;
422;SDS011;198;48.752;9.180;2024-01-06T04:10:43;5.93;;;1.70;;
422;SDS011;198;48.752;9.180;2024-01-06T04:13:09;2.37;;;1.33;;
422;SDS011;198;48.752;9.180;2024-01-06T04:15:35;10.80;;;1.20;;
422;SDS011;198;48.752;9.180;2024-01-06T04:18:01;2.30;;;1.10;;
422;SDS011;198;48.752;9.180;2024-01-06T04:20:31;1.47;;;1.03;;
422;SDS011;198;48.752;9.180;2024-01-06T04:22:57;11.17;;;2.00;;
422;SDS011;198;48.752;9.180;2024-01-06T04:25:23;3.23;;;1.27;;
422;SDS011;198;48.752;9.180;2024-01-06T04:27:48;8.57;;;1.33;;
422;SDS011;198;48.752;9.180;2024-01-06T04:30:14;6.23;;;1.13;;
422;SDS011;198;48.752;9.180;2024-01-06T04:32:41;7.67;;;1.37;;
422;SDS011;198;48.752;9.180;2024-01-06T04:35:07;2.57;;;1.17;;
422;SDS011;198;48.752;9.180;2024-01-06T04:37:32;3.60;;;1.47;;
422;SDS011;198;48.752;9.180;2024-01-06T04:39:58;4.35;;;1.33;;
422;SDS011;198;48.752;9.180;2024-01-06T04:42:24;16.50;;;1.63;;
422;SDS011;198;48.752;9.180;2024-01-06T04:44:49;6.27;;;1.90;;
422;SDS011;198;48.752;9.180;2024-01-06T04:47:15;4.43;;;1.10;;
422;SDS011;198;48.752;9.180;2024-01-06T04:49:41;2.60;;;1.70;;
422;SDS011;198;48.752;9.180;2024-01-06T04:52:06;4.73;;;0.97;;
422;SDS011;198;48.752;9.180;2024-01-06T04:54:32;2.23;;;1.60;;
422;SDS011;198;48.752;9.180;2024-01-06T04:56:58;3.73;;;1.20;;
422;SDS011;198;48.752;9.180;2024-01-06T04:59:23;2.00;;;1.40;;
422;SDS011;198;48.752;9.180;2024-01-06T05:01:50;4.40;;;1.10;;
422;SDS011;198;48.752;9.180;2024-01-06T05:04:16;6.73;;;1.47;;
422;SDS011;198;48.752;9.180;2024-01-06T05:06:42;5.90;;;1.57;;
422;SDS011;198;48.752;9.180;2024-01-06T05:09:08;4.30;;;1.43;;
422;SDS011;198;48.752;9.180;2024-01-06T05:11:33;4.00;;;1.20;;
422;SDS011;198;48.752;9.180;2024-01-06T05:13:59;9.97;;;2.13;;
422;SDS011;198;48.752;9.180;2024-01-06T05:16:24;7.90;;;1.43;;
422;SDS011;198;48.752;9.180;2024-01-06T05:18:50;2.93;;;1.50;;
422;SDS011;198;48.752;9.180;2024-01-06T05:21:15;9.40;;;1.60;;
422;SDS011;198;48.752;9.180;2024-01-06T05:23:41;3.60;;;1.43;;
422;SDS011;198;48.752;9.180;2024-01-06T05:26:06;2.20;;;0.80;;
422;SDS011;198;48.752;9.180;2024-01-06T05:28:32;1.70;;;1.30;;
422;SDS011;198;48.752;9.180;2024-01-06T05:30:57;7.53;;;1.60;;
422;SDS011;198;48.752;9.180;2024-01-06T05:33:23;3.40;;;1.20;;
422;SDS011;198;48.752;9.180;2024-01-06T05:35:48;7.53;;;1.27;;
422;SDS011;198;48.752;9.180;2024-01-06T05:38:14;8.00;;;1.60;;
422;SDS011;198;48.752;9.180;2024-01-06T05:40:40;6.37;;;1.40;;
422;SDS011;198;48.752;9.180;2024-01-06T05:43:05;1.30;;;1.20;;
422;SDS011;198;48.752;9.180;2024-01-06T05:45:31;6.07;;;1.30;;
422;SDS011;198;48.752;9.180;2024-01-06T05:47:56;2.93;;;1.57;;
422;SDS011;198;48.752;9.180;2024-01-06T05:50:22;3.90;;;1.10;;
422;SDS011;198;48.752;9.180;2024-01-06T05:52:47;8.63;;;1.40;;
422;SDS011;198;48.752;9.180;2024-01-06T05:55:13;6.00;;;1.50;;
422;SDS011;198;48.752;9.180;2024-01-06T05:57:39;3.30;;;1.57;;
422;SDS011;198;48.752;9.180;2024-01-06T06:00:07;5.20;;;1.37;;
422;SDS011;198;48.752;9.180;2024-01-06T06:02:34;6.20;;;1.50;;
422;SDS011;198;48.752;9.180;2024-01-06T06:04:59;5.10;;;1.40;;
422;SDS011;198;48.752;9.180;2024-01-06T06:07:25;4.63;;;1.27;;
422;SDS011;198;48.752;9.180;2024-01-06T06:09:50;2.53;;;1.40;;
422;SDS011;198;48.752;9.180;2024-01-06T06:12:18;3.10;;;1.30;;
422;SDS011;198;48.752;9.180;2024-01-06T06:14:43;4.77;;;1.97;;
422;SDS011;198;48.752;9.180;2024-01-06T06:17:09;3.43;;;1.30;;
422;SDS011;198;48.752;9.180;2024-01-06T06:19:34;3.27;;;1.60;;
422;SDS011;198;48.752;9.180;2024-01-06T06:22:00;4.90;;;1.87;;
422;SDS011;198;48.752;9.180;2024-01-06T06:24:25;4.30;;;1.30;;
422;SDS011;198;48.752;9.180;2024-01-06T06:26:50;4.40;;;1.30;;
422;SDS011;198;48.752;9.180;2024-01-06T06:29:16;2.63;;;1.27;;
422;SDS011;198;48.752;9.180;2024-01-06T06:31:42;4.13;;;1.53;;
422;SDS011;198;48.752;9.180;2024-01-06T06:34:11;2.33;;;1.13;;
422;SDS011;198;48.752;9.180;2024-01-06T06:36:37;2.00;;;1.10;;
422;SDS011;198;48.752;9.180;2024-01-06T06:39:03;5.33;;;1.70;;
422;SDS011;198;48.752;9.180;2024-01-06T06:41:29;1.93;;;1.40;;
422;SDS011;198;48.752;9.180;2024-01-06T06:43:55;13.67;;;1.50;;
422;SDS011;198;48.752;9.180;2024-01-06T06:46:24;3.20;;;2.00;;
422;SDS011;198;48.752;9.180;2024-01-06T06:48:50;5.23;;;2.50;;
422;SDS011;198;48.752;9.180;2024-01-06T06:51:16;6.23;;;1.40;;
422;SDS011;198;48.752;9.180;2024-01-06T06:53:41;8.87;;;1.60;;
422;SDS011;198;48.752;9.180;2024-01-06T06:56:07;4.50;;;2.67;;
422;SDS011;198;48.752;9.180;2024-01-06T06:58:32;7.97;;;4.20;;
422;SDS011;198;48.752;9.180;2024-01-06T07:00:58;10.20;;;3.07;;
422;SDS011;198;48.752;9.180;2024-01-06T07:03:23;8.63;;;3.07;;
422;SDS011;198;48.752;9.180;2024-01-06T07:05:49;9.07;;;2.80;;
422;SDS011;198;48.752;9.180;2024-01-06T07:08:15;4.53;;;2.43;;
422;SDS011;198;48.752;9.180;2024-01-06T07:10:40;6.70;;;2.23;;
422;SDS011;198;48.752;9.180;2024-01-06T07:13:06;3.87;;;2.30;;
422;SDS011;198;48.752;9.180;2024-01-06T07:15:32;6.57;;;2.10;;
422;SDS011;198;48.752;9.180;2024-01-06T07:17:57;6.50;;;1.70;;
422;SDS011;198;48.752;9.180;2024-01-06T07:20:23;8.73;;;2.13;;
422;SDS011;198;48.752;9.180;2024-01-06T07:22:48;6.60;;;2.43;;
422;SDS011;198;48.752;9.180;2024-01-06T07:25:13;7.00;;;1.70;;
422;SDS011;198;48.752;9.180;2024-01-06T07:27:39;1.73;;;1.50;;
422;SDS011;198;48.752;9.180;2024-01-06T07:30:05;1.67;;;1.57;;
422;SDS011;198;48.752;9.180;2024-01-06T07:32:33;2.97;;;1.73;;
422;SDS011;198;48.752;9.180;2024-01-06T07:34:58;9.43;;;1.73;;
422;SDS011;198;48.752;9.180;2024-01-06T07:37:24;2.70;;;1.70;;
422;SDS011;198;48.752;9.180;2024-01-06T07:39:50;2.53;;;1.67;;
422;SDS011;198;48.752;9.180;2024-01-06T07:42:16;1.97;;;1.23;;
422;SDS011;198;48.752;9.180;2024-01-06T07:44:41;5.07;;;1.60;;
422;SDS011;198;48.752;9.180;2024-01-06T07:47:07;5.63;;;1.60;;
422;SDS011;198;48.752;9.180;2024-01-06T07:49:32;1.20;;;1.10;;
422;SDS011;198;48.752;9.180;2024-01-06T07:51:58;2.60;;;1.50;;
422;SDS011;198;48.752;9.180;2024-01-06T07:54:23;2.87;;;1.27;;
422;SDS011;198;48.752;9.180;2024-01-06T07:56:49;3.40;;;1.53;;
422;SDS011;198;48.752;9.180;2024-01-06T07:59:14;2.20;;;1.80;;
422;SDS011;198;48.752;9.180;2024-01-06T08:01:40;2.40;;;1.37;;
422;SDS011;198;48.752;9.180;2024-01-06T08:04:07;2.10;;;1.57;;
422;SDS011;198;48.752;9.180;2024-01-06T08:06:33;1.10;;;1.07;;
422;SDS011;198;48.752;9.180;2024-01-06T08:08:59;2.70;;;1.30;;
422;SDS011;198;48.752;9.180;2024-01-06T08:11:25;4.53;;;1.30;;
422;SDS011;198;48.752;9.180;2024-01-06T08:13:50;3.07;;;1.40;;
422;SDS011;198;48.752;9.180;2024-01-06T08:16:16;3.47;;;2.13;;
422;SDS011;198;48.752;9.180;2024-01-06T08:18:43;2.10;;;1.30;;
422;SDS011;198;48.752;9.180;2024-01-06T08:21:08;1.33;;;1.23;;
422;SDS011;198;48.752;9.180;2024-01-06T08:23:34;1.40;;;1.13;;
422;SDS011;198;48.752;9.180;2024-01-06T08:25:59;2.00;;;1.27;;
422;SDS011;198;48.752;9.180;2024-01-06T08:28:26;5.23;;;1.40;;
422;SDS011;198;48.752;9.180;2024-01-06T08:30:51;8.03;;;2.10;;
422;SDS011;198;48.752;9.180;2024-01-06T08:33:17;6.43;;;2.00;;
422;SDS011;198;48.752;9.180;2024-01-06T08:35:42;1.90;;;1.57;;
422;SDS011;198;48.752;9.180;2024-01-06T08:38:08;2.30;;;1.53;;
422;SDS011;198;48.752;9.180;2024-01-06T08:40:34;5.10;;;1.23;;
422;SDS011;198;48.752;9.180;2024-01-06T08:43:00;6.20;;;2.53;;
422;SDS011;198;48.752;9.180;2024-01-06T08:45:25;5.70;;;2.33;;
422;SDS011;198;48.752;9.180;2024-01-06T08:47:51;9.07;;;1.90;;
422;SDS011;198;48.752;9.180;2024-01-06T08:50:16;2.40;;;1.50;;
422;SDS011;198;48.752;9.180;2024-01-06T08:52:42;1.20;;;1.10;;
422;SDS011;198;48.752;9.180;2024-01-06T08:55:08;4.70;;;1.57;;
422;SDS011;198;48.752;9.180;2024-01-06T08:57:33;3.30;;;1.53;;
422;SDS011;198;48.752;9.180;2024-01-06T08:59:59;1.43;;;1.33;;
422;SDS011;198;48.752;9.180;2024-01-06T09:02:24;1.43;;;1.30;;
422;SDS011;198;48.752;9.180;2024-01-06T09:04:50;3.00;;;1.60;;
422;SDS011;198;48.752;9.180;2024-01-06T09:07:15;3.83;;;1.90;;
422;SDS011;198;48.752;9.180;2024-01-06T09:09:42;3.10;;;1.50;;
422;SDS011;198;48.752;9.180;2024-01-06T09:12:08;7.00;;;1.67;;
422;SDS011;198;48.752;9.180;2024-01-06T09:14:33;4.17;;;1.60;;
422;SDS011;198;48.752;9.180;2024-01-06T09:16:58;15.87;;;2.57;;
422;SDS011;198;48.752;9.180;2024-01-06T09:19:24;2.27;;;1.37;;
422;SDS011;198;48.752;9.180;2024-01-06T09:21:50;1.30;;;1.20;;
422;SDS011;198;48.752;9.180;2024-01-06T09:24:15;4.63;;;1.37;;
422;SDS011;198;48.752;9.180;2024-01-06T09:26:41;1.53;;;1.30;;
422;SDS011;198;48.752;9.180;2024-01-06T09:29:07;1.10;;;1.00;;
422;SDS011;198;48.752;9.180;2024-01-06T09:31:32;1.57;;;1.23;;
422;SDS011;198;48.752;9.180;2024-01-06T09:34:00;1.33;;;1.23;;
422;SDS011;198;48.752;9.180;2024-01-06T09:36:27;1.30;;;1.20;;
422;SDS011;198;48.752;9.180;2024-01-06T09:38:53;1.43;;;1.00;;
422;SDS011;198;48.752;9.180;2024-01-06T09:41:18;1.30;;;1.00;;
422;SDS011;198;48.752;9.180;2024-01-06T09:43:45;1.80;;;1.40;;
422;SDS011;198;48.752;9.180;2024-01-06T09:46:13;2.90;;;1.60;;
422;SDS011;198;48.752;9.180;2024-01-06T09:48:42;3.17;;;1.10;;
422;SDS011;198;48.752;9.180;2024-01-06T09:51:09;1.13;;;1.03;;
422;SDS011;198;48.752;9.180;2024-01-06T09:53:36;5.43;;;1.10;;
422;SDS011;198;48.752;9.180;2024-01-06T09:56:08;3.33;;;1.63;;
422;SDS011;198;48.752;9.180;2024-01-06T09:58:33;1.20;;;1.10;;
422;SDS011;198;48.752;9.180;2024-01-06T10:01:00;1.87;;;1.30;;
422;SDS011;198;48.752;9.180;2024-01-06T10:03:26;1.60;;;1.30;;
422;SDS011;198;48.752;9.180;2024-01-06T10:05:52;3.30;;;1.20;;
422;SDS011;198;48.752;9.180;2024-01-06T10:08:18;2.40;;;2.00;;
422;SDS011;198;48.752;9.180;2024-01-06T10:10:44;2.80;;;1.10;;
422;SDS011;198;48.752;9.180;2024-01-06T10:13:10;1.17;;;1.17;;
422;SDS011;198;48.752;9.180;2024-01-06T10:15:35;5.70;;;1.10;;
422;SDS011;198;48.752;9.180;2024-01-06T10:18:01;3.13;;;1.03;;
422;SDS011;198;48.752;9.180;2024-01-06T10:20:28;1.50;;;1.40;;
422;SDS011;198;48.752;9.180;2024-01-06T10:22:54;1.30;;;0.97;;
422;SDS011;198;48.752;9.180;2024-01-06T10:25:21;3.27;;;1.03;;
422;SDS011;198;48.752;9.180;2024-01-06T10:27:48;4.83;;;1.40;;
422;SDS011;198;48.752;9.180;2024-01-06T10:30:14;1.73;;;1.40;;
422;SDS011;198;48.752;9.180;2024-01-06T10:32:43;1.10;;;1.00;;
422;SDS011;198;48.752;9.180;2024-01-06T10:35:08;2.93;;;1.43;;
422;SDS011;198;48.752;9.180;2024-01-06T10:37:34;1.23;;;0.90;;
422;SDS011;198;48.752;9.180;2024-01-06T10:42:48;1.50;;;1.10;;
422;SDS011;198;48.752;9.180;2024-01-06T10:45:14;1.27;;;0.93;;
422;SDS011;198;48.752;9.180;2024-01-06T10:47:40;1.90;;;1.13;;
422;SDS011;198;48.752;9.180;2024-01-06T10:50:10;1.33;;;1.30;;
422;SDS011;198;48.752;9.180;2024-01-06T10:52:37;8.73;;;1.93;;
422;SDS011;198;48.752;9.180;2024-01-06T10:55:04;1.53;;;1.47;;
422;SDS011;198;48.752;9.180;2024-01-06T10:57:30;1.33;;;1.27;;
422;SDS011;198;48.752;9.180;2024-01-06T10:59:59;1.23;;;1.20;;
422;SDS011;198;48.752;9.180;2024-01-06T11:02:26;1.47;;;1.20;;
422;SDS011;198;48.752;9.180;2024-01-06T11:04:52;1.37;;;1.27;;
422;SDS011;198;48.752;9.180;2024-01-06T11:07:19;1.83;;;1.57;;
422;SDS011;198;48.752;9.180;2024-01-06T11:12:20;1.33;;;1.20;;
422;SDS011;198;48.752;9.180;2024-01-06T11:14:46;2.23;;;1.60;;
422;SDS011;198;48.752;9.180;2024-01-06T11:17:12;1.23;;;1.23;;
422;SDS011;198;48.752;9.180;2024-01-06T11:24:55;1.50;;;1.30;;
422;SDS011;198;48.752;9.180;2024-01-06T11:27:23;1.30;;;1.20;;
422;SDS011;198;48.752;9.180;2024-01-06T11:29:53;1.43;;;1.37;;
422;SDS011;198;48.752;9.180;2024-01-06T11:34:52;4.40;;;1.20;;
422;SDS011;198;48.752;9.180;2024-01-06T11:37:20;1.60;;;0.90;;
422;SDS011;198;48.752;9.180;2024-01-06T11:40:01;2.50;;;1.10;;
422;SDS011;198;48.752;9.180;2024-01-06T11:42:33;2.37;;;1.30;;
422;SDS011;198;48.752;9.180;2024-01-06T11:45:03;2.30;;;1.43;;
422;SDS011;198;48.752;9.180;2024-01-06T11:47:33;2.37;;;1.30;;
422;SDS011;198;48.752;9.180;2024-01-06T11:50:00;1.63;;;1.40;;
422;SDS011;198;48.752;9.180;2024-01-06T11:52:29;1.43;;;1.30;;
422;SDS011;198;48.752;9.180;2024-01-06T11:54:58;1.67;;;1.20;;
422;SDS011;198;48.752;9.180;2024-01-06T11:57:28;3.13;;;1.53;;
422;SDS011;198;48.752;9.180;2024-01-06T11:59:54;1.80;;;1.37;;
422;SDS011;198;48.752;9.180;2024-01-06T12:02:20;2.20;;;1.53;;
422;SDS011;198;48.752;9.180;2024-01-06T12:04:52;1.47;;;1.37;;
422;SDS011;198;48.752;9.180;2024-01-06T12:07:19;1.67;;;1.50;;
422;SDS011;198;48.752;9.180;2024-01-06T12:09:47;2.40;;;1.90;;
422;SDS011;198;48.752;9.180;2024-01-06T12:12:24;1.47;;;1.37;;
422;SDS011;198;48.752;9.180;2024-01-06T12:14:50;1.83;;;1.50;;
422;SDS011;198;48.752;9.180;2024-01-06T12:17:16;2.40;;;1.57;;
422;SDS011;198;48.752;9.180;2024-01-06T12:19:41;4.60;;;2.17;;
422;SDS011;198;48.752;9.180;2024-01-06T12:22:09;2.43;;;1.87;;
422;SDS011;198;48.752;9.180;2024-01-06T12:24:36;1.50;;;1.40;;
422;SDS011;198;48.752;9.180;2024-01-06T12:27:02;1.70;;;1.60;;
422;SDS011;198;48.752;9.180;2024-01-06T12:29:28;1.93;;;1.67;;
422;SDS011;198;48.752;9.180;2024-01-06T12:31:54;1.37;;;1.27;;
422;SDS011;198;48.752;9.180;2024-01-06T12:34:20;2.17;;;1.70;;
422;SDS011;198;48.752;9.180;2024-01-06T12:36:46;1.70;;;1.60;;
422;SDS011;198;48.752;9.180;2024-01-06T12:39:12;2.40;;;1.77;;
422;SDS011;198;48.752;9.180;2024-01-06T12:41:41;1.90;;;1.73;;
422;SDS011;198;48.752;9.180;2024-01-06T12:44:08;2.57;;;2.03;;
422;SDS011;198;48.752;9.180;2024-01-06T12:46:34;2.20;;;2.00;;
422;SDS011;198;48.752;9.180;2024-01-06T12:49:00;4.53;;;2.07;;
422;SDS011;198;48.752;9.180;2024-01-06T12:51:25;2.30;;;1.90;;
422;SDS011;198;48.752;9.180;2024-01-06T12:53:51;1.63;;;1.53;;
422;SDS011;198;48.752;9.180;2024-01-06T12:56:17;2.20;;;1.63;;
422;SDS011;198;48.752;9.180;2024-01-06T12:58:42;6.80;;;1.90;;
422;SDS011;198;48.752;9.180;2024-01-06T13:01:08;3.20;;;1.60;;
422;SDS011;198;48.752;9.180;2024-01-06T13:03:34;7.50;;;1.83;;
422;SDS011;198;48.752;9.180;2024-01-06T13:06:00;1.97;;;1.63;;
422;SDS011;198;48.752;9.180;2024-01-06T13:08:26;3.23;;;1.73;;
422;SDS011;198;48.752;9.180;2024-01-06T13:10:52;3.67;;;1.77;;
422;SDS011;198;48.752;9.180;2024-01-06T13:13:19;2.33;;;2.23;;
422;SDS011;198;48.752;9.180;2024-01-06T13:15:44;2.33;;;2.13;;
422;SDS011;198;48.752;9.180;2024-01-06T13:18:11;2.67;;;2.50;;
422;SDS011;198;48.752;9.180;2024-01-06T13:20:37;8.80;;;4.00;;
422;SDS011;198;48.752;9.180;2024-01-06T13:23:05;2.80;;;2.63;;
422;SDS011;198;48.752;9.180;2024-01-06T13:25:31;5.17;;;2.73;;
422;SDS011;198;48.752;9.180;2024-01-06T13:27:57;5.50;;;2.33;;
422;SDS011;198;48.752;9.180;2024-01-06T13:30:23;5.57;;;2.77;;
422;SDS011;198;48.752;9.180;2024-01-06T13:32:50;4.70;;;2.70;;
422;SDS011;198;48.752;9.180;2024-01-06T13:35:19;4.70;;;2.97;;
422;SDS011;198;48.752;9.180;2024-01-06T13:37:45;6.80;;;3.50;;
422;SDS011;198;48.752;9.180;2024-01-06T13:40:13;4.70;;;3.27;;
422;SDS011;198;48.752;9.180;2024-01-06T13:42:38;5.17;;;3.43;;
422;SDS011;198;48.752;9.180;2024-01-06T13:45:04;5.80;;;3.97;;
422;SDS011;198;48.752;9.180;2024-01-06T13:47:30;3.43;;;2.87;;
422;SDS011;198;48.752;9.180;2024-01-06T13:49:56;5.93;;;4.03;;
422;SDS011;198;48.752;9.180;2024-01-06T13:52:22;5.30;;;3.20;;
422;SDS011;198;48.752;9.180;2024-01-06T13:54:47;5.57;;;3.30;;
422;SDS011;198;48.752;9.180;2024-01-06T13:57:13;3.97;;;3.10;;
422;SDS011;198;48.752;9.180;2024-01-06T13:59:39;8.10;;;4.10;;
422;SDS011;198;48.752;9.180;2024-01-06T14:02:07;7.67;;;3.80;;
422;SDS011;198;48.752;9.180;2024-01-06T14:04:34;7.40;;;3.63;;
422;SDS011;198;48.752;9.180;2024-01-06T14:07:00;5.60;;;3.80;;
422;SDS011;198;48.752;9.180;2024-01-06T14:09:27;6.63;;;4.37;;
422;SDS011;198;48.752;9.180;2024-01-06T14:11:52;6.43;;;3.97;;
422;SDS011;198;48.752;9.180;2024-01-06T14:14:19;8.33;;;4.07;;
422;SDS011;198;48.752;9.180;2024-01-06T14:16:45;5.93;;;3.37;;
422;SDS011;198;48.752;9.180;2024-01-06T14:19:11;6.23;;;3.63;;
422;SDS011;198;48.752;9.180;2024-01-06T14:21:37;5.80;;;3.33;;
422;SDS011;198;48.752;9.180;2024-01-06T14:24:03;4.07;;;3.13;;
422;SDS011;198;48.752;9.180;2024-01-06T14:26:30;5.90;;;3.20;;
422;SDS011;198;48.752;9.180;2024-01-06T14:28:56;5.77;;;3.87;;
422;SDS011;198;48.752;9.180;2024-01-06T14:31:23;6.50;;;3.33;;
422;SDS011;198;48.752;9.180;2024-01-06T14:33:49;5.30;;;3.37;;
422;SDS011;198;48.752;9.180;2024-01-06T14:36:15;8.70;;;3.40;;
422;SDS011;198;48.752;9.180;2024-01-06T14:38:40;5.27;;;3.47;;
422;SDS011;198;48.752;9.180;2024-01-06T14:41:06;6.00;;;3.77;;
422;SDS011;198;48.752;9.180;2024-01-06T14:43:31;5.97;;;3.70;;
422;SDS011;198;48.752;9.180;2024-01-06T14:45:57;4.73;;;3.43;;
422;SDS011;198;48.752;9.180;2024-01-06T14:48:23;4.77;;;3.20;;
422;SDS011;198;48.752;9.180;2024-01-06T14:50:48;6.17;;;3.30;;
422;SDS011;198;48.752;9.180;2024-01-06T14:53:15;3.83;;;3.63;;
422;SDS011;198;48.752;9.180;2024-01-06T14:55:40;6.50;;;3.60;;
422;SDS011;198;48.752;9.180;2024-01-06T14:58:06;10.60;;;4.07;;
422;SDS011;198;48.752;9.180;2024-01-06T15:00:33;7.97;;;4.10;;
422;SDS011;198;48.752;9.180;2024-01-06T15:03:00;4.67;;;3.40;;
422;SDS011;198;48.752;9.180;2024-01-06T15:05:25;9.27;;;4.13;;
422;SDS011;198;48.752;9.180;2024-01-06T15:07:53;8.73;;;4.67;;
422;SDS011;198;48.752;9.180;2024-01-06T15:10:19;8.27;;;4.27;;
422;SDS011;198;48.752;9.180;2024-01-06T15:12:44;9.73;;;5.57;;
422;SDS011;198;48.752;9.180;2024-01-06T15:15:10;8.93;;;4.27;;
422;SDS011;198;48.752;9.180;2024-01-06T15:17:35;8.50;;;5.13;;
422;SDS011;198;48.752;9.180;2024-01-06T15:20:02;6.33;;;4.40;;
422;SDS011;198;48.752;9.180;2024-01-06T15:22:28;7.17;;;5.00;;
422;SDS011;198;48.752;9.180;2024-01-06T15:24:54;7.47;;;5.00;;
422;SDS011;198;48.752;9.180;2024-01-06T15:27:19;11.37;;;5.47;;
422;SDS011;198;48.752;9.180;2024-01-06T15:29:45;14.33;;;5.27;;
422;SDS011;198;48.752;9.180;2024-01-06T15:32:10;7.87;;;4.53;;
422;SDS011;198;48.752;9.180;2024-01-06T15:34:36;9.10;;;5.10;;
422;SDS011;198;48.752;9.180;2024-01-06T15:37:01;14.63;;;5.60;;
422;SDS011;198;48.752;9.180;2024-01-06T15:39:27;10.77;;;4.80;;
422;SDS011;198;48.752;9.180;2024-01-06T15:41:53;10.90;;;5.20;;
422;SDS011;198;48.752;9.180;2024-01-06T15:44:18;9.47;;;5.00;;
422;SDS011;198;48.752;9.180;2024-01-06T15:46:44;7.90;;;4.73;;
422;SDS011;198;48.752;9.180;2024-01-06T15:49:09;8.90;;;5.33;;